Portada
METAR-TAF:

METAR-TAF

Aeropuertos :

Aeropuerto de Milán-Linate

Milán, Italia

latitud: 45-26N, longitud: 009-17E, altitud: 107 m

Observación

El informe se hizo hace 27 minutos, a las 08:50 UTC
Viento 6 kt del este-sureste, variando entre este-noreste y sur-sureste
Temperatura 10°C
Humedad 53%
Presión 1020 hPa
Visibilidad 10 km o más
Escasas nubes a una altura de 10000 ft

METAR: LIML 160850Z 12006KT 070V160 9999 FEW100 10/01 Q1020 NOSIG

Hora: 11:17 (09:17 UTC)

Pronóstico

El informe se hizo hace 4 horas y 17 minutos, a las 05:00 UTC
Pronóstico válido del 16 a las 06 UTC al 17 a las 06 UTC
Viento 6 kt del norte-noreste
Visibilidad 10 km o más
Nubes dispersas a una altura de 3000 ft
Evolucionando progresivamente
del 16 a las 07 UTC al 16 a las 09 UTC
Viento 10 kt del este

TAF: LIML 160500Z 1606/1706 03006KT 9999 SCT030 BECMG 1607/1609 10010KT

Observaciones y pronósticos meteorológicos de más de 4000 aeropuertos (mensajes METAR y TAF).

Los puntos amarillos y rojos representan las estaciones disponibles.

Ponga el ratón en el punto deseado para ver el nombre de la estación.

Haga clic para ver las observaciones y los pronósticos meteorológicos.

Para cambiar el mapa : haga clic en los botones verdes con una cruz de color negro para hacer un zoom, en el botón verde con un guión para alejar o en las flechas verdes para mapas adyacentes.


METAR-TAF: